Time;durP1;ratioP1;P1;durP2;ratioP2;P2;SDS_P1;SDS_P2;PMS_P1;PMS_P2;Temp;Humidity;BMP_temperature;BMP_pressure;BME280_temperature;BME280_humidity;BME280_pressure;Samples;Min_cycle;Max_cycle;Signal;HPM_P1;HPM_P2
2021/12/20 00:01:12;;;;;;;7.63;2.40;;;;;;;1.18;88.45;100716.45;1733031;82;21078;-75
2021/12/20 00:03:39;;;;;;;8.20;2.50;;;;;;;1.19;88.26;100722.92;1732725;82;21136;-75
2021/12/20 00:06:06;;;;;;;9.17;2.77;;;;;;;1.17;88.20;100720.75;1732775;82;21016;-75
2021/12/20 00:08:34;;;;;;;9.90;3.10;;;;;;;1.18;88.29;100729.35;1733150;82;21486;-75
2021/12/20 00:11:01;;;;;;;7.10;2.80;;;;;;;1.16;88.48;100731.91;1733109;82;20894;-75
2021/12/20 00:13:28;;;;;;;7.97;2.60;;;;;;;1.13;88.47;100724.58;1732843;82;21054;-76
2021/12/20 00:15:55;;;;;;;9.77;2.83;;;;;;;1.08;88.46;100721.56;1733156;82;21482;-75
2021/12/20 00:18:22;;;;;;;7.77;2.57;;;;;;;1.05;88.48;100726.70;1730968;82;21055;-75
2021/12/20 00:20:49;;;;;;;8.97;3.00;;;;;;;1.07;88.44;100731.42;1727702;83;21433;-75
2021/12/20 00:23:17;;;;;;;6.03;2.20;;;;;;;1.08;88.20;100734.47;1727857;83;21024;-75
2021/12/20 00:25:48;;;;;;;9.17;2.83;;;;;;;1.07;88.16;100740.89;1727700;83;21019;-75
2021/12/20 00:28:13;;;;;;;11.37;3.07;;;;;;;1.04;88.22;100736.57;1735091;82;21768;-76
2021/12/20 00:30:40;;;;;;;11.13;3.30;;;;;;;0.99;88.39;100747.28;1727488;82;21525;-75
2021/12/20 00:33:08;;;;;;;9.53;2.83;;;;;;;0.97;88.53;100752.89;1727923;83;21012;-75
2021/12/20 00:35:35;;;;;;;6.43;2.37;;;;;;;0.96;88.67;100758.87;1727721;83;20996;-75
2021/12/20 00:40:48;;;;;;;9.80;2.20;;;;;;;0.99;88.31;100764.06;1727670;83;21941;-75
2021/12/20 00:43:16;;;;;;;5.43;2.10;;;;;;;0.99;88.22;100758.90;1727526;83;21486;-76
2021/12/20 00:45:43;;;;;;;10.97;2.40;;;;;;;1.00;88.32;100761.05;1727937;83;21024;-75
2021/12/20 00:48:11;;;;;;;8.03;3.53;;;;;;;1.00;88.39;100760.65;1727668;83;21040;-76
2021/12/20 00:50:42;;;;;;;5.90;2.37;;;;;;;1.00;88.54;100755.48;1727902;83;21020;-75
2021/12/20 00:53:12;;;;;;;6.40;2.20;;;;;;;1.00;88.71;100755.89;1727574;83;21183;-75
2021/12/20 00:55:39;;;;;;;6.22;2.65;;;;;;;1.00;88.81;100763.23;1727952;83;20989;-76
2021/12/20 00:58:06;;;;;;;9.37;2.33;;;;;;;1.00;88.76;100769.68;1727654;83;21028;-76
2021/12/20 01:00:39;;;;;;;10.10;2.53;;;;;;;1.03;88.69;100765.83;1735424;82;22045;-76
2021/12/20 01:03:08;;;;;;;5.73;2.40;;;;;;;1.06;88.44;100765.85;1735122;82;21003;-75
2021/12/20 01:05:38;;;;;;;8.30;2.10;;;;;;;1.07;88.42;100761.11;1735421;82;21067;-75
2021/12/20 01:08:07;;;;;;;13.05;2.40;;;;;;;1.05;88.49;100761.95;1735180;82;20988;-75
2021/12/20 01:10:38;;;;;;;6.77;2.20;;;;;;;1.02;88.58;100764.52;1735435;82;21008;-76
2021/12/20 01:13:07;;;;;;;7.30;2.43;;;;;;;1.00;88.63;100772.27;1735138;82;20977;-75
2021/12/20 01:15:45;;;;;;;4.33;1.77;;;;;;;1.00;88.51;100773.95;1727828;82;21047;-75
2021/12/20 01:18:09;;;;;;;7.33;1.90;;;;;;;1.01;88.33;100777.85;1726642;83;21133;-75
2021/12/20 01:20:36;;;;;;;4.77;2.10;;;;;;;1.03;88.36;100776.59;1719906;83;21020;-75
2021/12/20 01:23:05;;;;;;;6.07;2.00;;;;;;;1.01;88.46;100777.85;1720402;83;20993;-75
2021/12/20 01:25:32;;;;;;;4.97;1.80;;;;;;;1.01;88.66;100780.86;1718434;83;21024;-75
2021/12/20 01:28:00;;;;;;;6.87;2.20;;;;;;;1.01;88.79;100783.02;1733019;82;21075;-75
2021/12/20 01:30:28;;;;;;;6.73;1.80;;;;;;;0.99;88.63;100786.44;1718993;83;21080;-75
2021/12/20 01:32:56;;;;;;;7.17;1.83;;;;;;;1.00;88.46;100794.20;1733133;82;21024;-75
2021/12/20 01:35:27;;;;;;;6.60;1.83;;;;;;;1.01;88.27;100801.08;1718496;83;21031;-75
2021/12/20 01:37:56;;;;;;;8.53;1.60;;;;;;;1.00;88.21;100800.66;1733407;82;21032;-75
2021/12/20 01:40:25;;;;;;;3.27;1.67;;;;;;;1.01;88.25;100798.94;1718731;83;21012;-76
2021/12/20 01:42:56;;;;;;;8.50;2.00;;;;;;;0.99;88.37;100806.65;1733068;82;21187;-76
2021/12/20 01:45:24;;;;;;;;;;;;;;;0.96;88.46;100810.50;1721095;83;21470;-75
2021/12/20 01:48:02;;;;;;;7.40;1.83;;;;;;;0.92;88.41;100802.31;1703292;84;20167;-75
2021/12/20 01:50:36;;;;;;;8.20;2.05;;;;;;;0.91;88.57;100803.57;1733844;82;21035;-75
2021/12/20 01:52:50;;;;;;;5.93;1.70;;;;;;;0.92;88.37;100804.03;1732493;82;21500;-76
2021/12/20 01:55:20;;;;;;;5.83;1.73;;;;;;;0.96;88.34;100813.52;1735186;82;21128;-75
2021/12/20 01:57:49;;;;;;;4.60;1.47;;;;;;;0.97;88.17;100808.38;1735592;82;27205;-76
2021/12/20 02:00:21;;;;;;;5.40;1.50;;;;;;;0.98;88.15;100807.52;1735030;82;21027;-76
2021/12/20 02:02:53;;;;;;;6.63;1.77;;;;;;;0.95;88.27;100806.63;1735042;82;21537;-75
2021/12/20 02:05:25;;;;;;;3.98;1.65;;;;;;;0.92;88.32;100810.05;1734864;82;21023;-76
2021/12/20 02:07:57;;;;;;;3.47;1.57;;;;;;;0.89;88.33;100807.45;1734682;82;21119;-76
2021/12/20 02:10:20;;;;;;;3.60;1.30;;;;;;;0.86;88.32;100809.57;1734217;82;21000;-75
2021/12/20 02:12:47;;;;;;;3.50;1.20;;;;;;;0.91;88.09;100812.60;1735356;82;21541;-76
2021/12/20 02:15:14;;;;;;;6.30;1.20;;;;;;;0.91;87.96;100809.59;1735230;82;21027;-75
2021/12/20 02:17:42;;;;;;;5.00;1.20;;;;;;;0.91;87.95;100813.46;1735361;82;20995;-75
2021/12/20 02:20:12;;;;;;;2.60;1.13;;;;;;;0.88;88.08;100814.73;1736155;82;21466;-75
2021/12/20 02:22:39;;;;;;;3.65;1.30;;;;;;;0.87;88.25;100818.17;1764714;80;21004;-76
2021/12/20 02:25:08;;;;;;;2.13;1.00;;;;;;;0.88;88.30;100827.20;1765269;81;21489;-75
2021/12/20 02:27:34;;;;;;;4.70;1.20;;;;;;;0.88;88.31;100816.02;1765145;81;20935;-76
2021/12/20 02:30:13;;;;;;;3.13;1.00;;;;;;;0.96;88.03;100819.53;1765223;81;22048;-75
2021/12/20 02:38:32;;;;;;;5.93;1.43;;;;;;;0.95;88.14;100819.11;1765261;80;21004;-75
2021/12/20 02:41:06;;;;;;;4.50;1.10;;;;;;;0.97;88.13;100822.58;1765113;81;20977;-75
2021/12/20 02:43:38;;;;;;;6.33;1.00;;;;;;;0.95;87.94;100824.70;1765200;80;21055;-75
2021/12/20 02:46:12;;;;;;;3.47;1.03;;;;;;;0.94;87.88;100831.55;1765402;80;21949;-76
2021/12/20 02:48:37;;;;;;;3.83;1.00;;;;;;;0.95;87.64;100828.57;1764641;80;20996;-75
2021/12/20 02:51:04;;;;;;;5.53;1.13;;;;;;;0.92;87.55;100835.00;1705949;84;21910;-75
2021/12/20 02:53:31;;;;;;;2.27;0.77;;;;;;;0.91;87.66;100828.09;1765148;81;21031;-75
2021/12/20 02:55:57;;;;;;;4.90;1.20;;;;;;;0.88;87.60;100827.63;1765532;81;22060;-75
2021/12/20 02:58:25;;;;;;;3.13;1.07;;;;;;;0.86;87.57;100827.63;1765357;81;21129;-75
2021/12/20 03:00:52;;;;;;;4.03;1.47;;;;;;;0.82;87.59;100824.56;1736795;82;22144;-75
2021/12/20 03:03:20;;;;;;;4.93;1.10;;;;;;;0.78;87.51;100823.25;1765049;80;21015;-74
2021/12/20 03:05:46;;;;;;;3.70;1.00;;;;;;;0.73;87.41;100819.33;1765482;81;21024;-75
2021/12/20 03:08:14;;;;;;;4.10;0.90;;;;;;;0.71;87.50;100813.71;1765260;81;21003;-75
2021/12/20 03:10:42;;;;;;;5.37;1.13;;;;;;;0.72;87.61;100816.72;1765567;81;21112;-74
2021/12/20 03:13:10;;;;;;;3.30;0.90;;;;;;;0.73;87.51;100813.31;1736758;82;21051;-75
2021/12/20 03:15:37;;;;;;;2.20;0.83;;;;;;;0.69;87.50;100814.97;1765196;81;21012;-74
2021/12/20 03:18:04;;;;;;;3.80;1.13;;;;;;;0.67;87.48;100821.86;1765501;81;21562;-75
2021/12/20 03:20:31;;;;;;;4.47;1.00;;;;;;;0.66;87.46;100829.13;1779231;80;21481;-75
2021/12/20 03:22:58;;;;;;;3.10;0.77;;;;;;;0.65;87.49;100827.42;1782882;80;21135;-76
2021/12/20 03:25:25;;;;;;;3.37;0.80;;;;;;;0.64;87.49;100831.72;1783255;80;20992;-75
2021/12/20 03:27:52;;;;;;;2.37;1.13;;;;;;;0.66;87.61;100822.25;1782953;80;21000;-75
2021/12/20 03:30:21;;;;;;;4.97;0.80;;;;;;;0.69;87.62;100830.45;1783233;80;20965;-75
2021/12/20 03:32:48;;;;;;;3.27;1.00;;;;;;;0.71;87.56;100833.06;1783080;80;21012;-75
2021/12/20 03:35:15;;;;;;;1.97;0.60;;;;;;;0.70;87.51;100845.53;1783300;80;21108;-75
2021/12/20 03:37:43;;;;;;;2.80;0.90;;;;;;;0.70;87.49;100848.11;1783058;80;20920;-75
2021/12/20 03:40:11;;;;;;;6.20;1.70;;;;;;;0.71;87.48;100838.22;1783526;80;21007;-75
2021/12/20 03:42:42;;;;;;;4.70;0.97;;;;;;;0.71;87.40;100829.19;1783320;80;21060;-75
2021/12/20 03:45:08;;;;;;;3.20;0.88;;;;;;;0.69;87.36;100833.03;1783532;80;21279;-75
2021/12/20 03:47:35;;;;;;;3.20;0.80;;;;;;;0.71;87.46;100839.08;1783084;80;21131;-75
2021/12/20 03:50:04;;;;;;;2.90;0.80;;;;;;;0.74;87.51;100836.95;1783530;80;21008;-75
2021/12/20 03:52:32;;;;;;;3.57;1.07;;;;;;;0.73;87.34;100839.11;1783271;80;20992;-75
2021/12/20 03:55:02;;;;;;;2.87;0.77;;;;;;;0.70;87.30;100831.34;1783659;80;21001;-75
2021/12/20 03:57:29;;;;;;;2.83;1.00;;;;;;;0.66;87.27;100836.87;1783331;80;21000;-75
2021/12/20 03:59:56;;;;;;;2.03;0.70;;;;;;;0.63;87.21;100836.41;1782446;80;21128;-74
2021/12/20 04:02:24;;;;;;;3.27;0.57;;;;;;;0.61;87.23;100839.42;1755173;81;21459;-75
2021/12/20 04:04:51;;;;;;;3.57;0.87;;;;;;;0.62;87.22;100841.58;1782714;80;21028;-76
2021/12/20 04:07:19;;;;;;;2.53;0.70;;;;;;;0.61;87.26;100843.30;1782641;80;21009;-74
2021/12/20 04:09:46;;;;;;;3.67;0.90;;;;;;;0.64;87.29;100850.20;1782787;80;21244;-75
2021/12/20 04:12:15;;;;;;;3.30;0.73;;;;;;;0.64;87.21;100860.52;1782556;80;21118;-75
2021/12/20 04:14:43;;;;;;;;;;;;;;;0.62;87.25;100847.59;1785428;80;21004;-74
2021/12/20 04:17:10;;;;;;;2.77;0.70;;;;;;;0.62;87.19;100845.02;1782663;80;20313;-76
2021/12/20 04:19:37;;;;;;;4.87;1.17;;;;;;;0.61;87.17;100852.33;1782672;80;21047;-75
2021/12/20 04:22:04;;;;;;;2.43;0.73;;;;;;;0.58;87.10;100838.50;1782765;80;21067;-74
2021/12/20 04:24:31;;;;;;;2.37;0.90;;;;;;;0.58;87.14;100849.72;1782564;80;21526;-74
2021/12/20 04:26:58;;;;;;;4.20;0.70;;;;;;;0.56;87.10;100847.97;1782692;80;21968;-74
2021/12/20 04:29:27;;;;;;;3.20;1.00;;;;;;;0.55;87.02;100853.52;1782897;80;21025;-76
2021/12/20 04:31:54;;;;;;;1.57;0.60;;;;;;;0.52;86.96;100848.33;1782835;80;21037;-74
2021/12/20 04:34:21;;;;;;;3.40;0.90;;;;;;;0.51;86.94;100848.33;1782893;80;21008;-74
2021/12/20 04:36:48;;;;;;;3.20;0.73;;;;;;;0.48;86.96;100846.58;1782702;80;21130;-74
2021/12/20 04:39:16;;;;;;;4.83;0.80;;;;;;;0.48;86.99;100832.83;1782963;80;20961;-74
2021/12/20 04:41:43;;;;;;;2.40;1.00;;;;;;;0.47;86.98;100832.37;1782552;80;21024;-74
2021/12/20 04:44:10;;;;;;;3.57;0.90;;;;;;;0.44;86.91;100842.22;1783005;80;20988;-76
2021/12/20 04:46:37;;;;;;;4.20;0.83;;;;;;;0.41;86.91;100838.32;1782827;80;20985;-76
2021/12/20 04:49:04;;;;;;;4.13;1.47;;;;;;;0.41;87.05;100855.94;1782881;80;21112;-73
2021/12/20 04:51:31;;;;;;;1.47;0.70;;;;;;;0.42;87.00;100858.13;1782498;80;21005;-77
2021/12/20 04:53:59;;;;;;;3.13;0.80;;;;;;;0.41;86.92;100867.98;1782809;80;21008;-74
2021/12/20 04:56:26;;;;;;;3.17;0.93;;;;;;;0.41;87.02;100871.84;1782676;80;21000;-75
2021/12/20 04:58:52;;;;;;;2.47;0.80;;;;;;;0.40;86.98;100862.39;1782749;80;21067;-76
2021/12/20 05:01:20;;;;;;;3.03;0.90;;;;;;;0.38;87.02;100856.34;1782585;80;21107;-75
2021/12/20 05:03:47;;;;;;;3.53;1.00;;;;;;;0.36;86.97;100859.31;1782718;80;21476;-74
2021/12/20 05:06:14;;;;;;;3.57;0.97;;;;;;;0.36;87.02;100857.63;1782487;80;21043;-74
2021/12/20 05:08:49;;;;;;;3.67;1.07;;;;;;;0.35;87.01;100867.91;1782759;80;21024;-76
2021/12/20 05:11:16;;;;;;;3.20;0.80;;;;;;;0.34;86.99;100863.19;1782717;80;21028;-73
2021/12/20 05:13:43;;;;;;;5.90;0.80;;;;;;;0.33;86.93;100878.63;1782826;80;21093;-74
2021/12/20 05:16:10;;;;;;;3.27;1.00;;;;;;;0.31;86.96;100879.91;1782502;80;20992;-75
2021/12/20 05:18:37;;;;;;;4.47;1.10;;;;;;;0.33;87.10;100882.48;1782820;80;21779;-74
2021/12/20 05:21:04;;;;;;;4.93;0.77;;;;;;;0.36;87.12;100884.70;1782397;80;21505;-73
2021/12/20 05:23:31;;;;;;;3.00;0.90;;;;;;;0.36;87.00;100887.68;1782537;80;21028;-74
2021/12/20 05:25:58;;;;;;;4.03;1.10;;;;;;;0.34;86.99;100885.10;1782574;80;21074;-73
2021/12/20 05:28:25;;;;;;;5.37;2.87;;;;;;;0.35;87.00;100882.09;1782345;80;20980;-74
2021/12/20 05:30:53;;;;;;;6.40;4.07;;;;;;;0.35;86.93;100897.56;1782487;80;21063;-74
2021/12/20 05:33:22;;;;;;;5.83;2.80;;;;;;;0.36;87.12;100899.28;1782506;80;21498;-74
2021/12/20 05:35:50;;;;;;;3.80;1.20;;;;;;;0.38;87.06;100897.17;1782673;80;20993;-74
2021/12/20 05:38:17;;;;;;;3.60;0.83;;;;;;;0.38;86.97;100895.02;1782507;80;21103;-75
2021/12/20 05:40:44;;;;;;;3.63;1.03;;;;;;;0.37;86.92;100899.75;1782457;80;21009;-74
2021/12/20 05:43:11;;;;;;;4.97;0.90;;;;;;;0.37;86.98;100899.75;1782416;80;21479;-74
2021/12/20 05:45:38;;;;;;;1.80;0.93;;;;;;;0.36;86.91;100899.28;1782623;80;21517;-74
2021/12/20 05:48:06;;;;;;;2.63;0.63;;;;;;;0.38;87.01;100907.91;1782467;80;21027;-74
2021/12/20 05:50:33;;;;;;;5.77;1.67;;;;;;;0.37;86.92;100907.05;1782613;80;21125;-74
2021/12/20 05:53:00;;;;;;;8.30;2.83;;;;;;;0.38;86.97;100906.62;1782484;80;20924;-74
2021/12/20 05:55:27;;;;;;;4.53;0.80;;;;;;;0.39;86.92;100906.66;1782688;80;21013;-74
2021/12/20 05:57:55;;;;;;;7.27;2.40;;;;;;;0.39;86.90;100909.67;1782544;80;21012;-75
2021/12/20 06:00:23;;;;;;;3.13;0.70;;;;;;;;;;1782776;80;21015;-74
2021/12/20 06:02:51;;;;;;;5.40;1.50;;;;;;;0.40;87.03;100924.28;1782482;80;21205;-74
2021/12/20 06:05:21;;;;;;;4.37;1.00;;;;;;;0.41;87.08;100921.70;1782552;80;21004;-74
2021/12/20 06:07:48;;;;;;;4.47;1.13;;;;;;;0.43;87.11;100921.30;1782429;80;21600;-74
2021/12/20 06:10:18;;;;;;;4.20;1.10;;;;;;;0.44;86.96;100926.03;1782780;80;20989;-74
2021/12/20 06:12:45;;;;;;;6.78;0.93;;;;;;;0.45;86.94;100929.08;1782701;80;21586;-73
2021/12/20 06:15:13;;;;;;;3.50;0.73;;;;;;;0.44;86.90;100929.51;1782770;80;21094;-74
2021/12/20 06:17:41;;;;;;;4.33;1.13;;;;;;;0.44;86.87;100932.48;1782398;80;20992;-75
2021/12/20 06:20:11;;;;;;;4.23;1.20;;;;;;;0.43;86.86;100930.33;1782585;80;21028;-74
2021/12/20 06:22:38;;;;;;;4.50;1.33;;;;;;;0.42;86.83;100938.07;1782590;80;21036;-74
2021/12/20 06:25:07;;;;;;;3.93;1.30;;;;;;;0.40;86.83;100933.31;1782595;80;20985;-76
2021/12/20 06:27:38;;;;;;;2.53;1.40;;;;;;;0.39;86.82;100944.05;1782378;80;21118;-74
2021/12/20 06:30:10;;;;;;;6.83;1.27;;;;;;;0.38;86.84;100944.88;1782519;80;20997;-75
2021/12/20 06:32:43;;;;;;;5.07;1.20;;;;;;;0.40;86.87;100943.20;1782774;80;21833;-73
2021/12/20 06:35:13;;;;;;;3.10;1.20;;;;;;;0.40;86.83;100950.93;1782572;80;21422;-74
2021/12/20 06:37:43;;;;;;;6.80;1.10;;;;;;;0.38;86.80;100941.01;1782841;80;21267;-74
2021/12/20 06:40:11;;;;;;;3.55;1.35;;;;;;;0.37;86.84;100938.00;1782828;80;21218;-73
2021/12/20 06:42:38;;;;;;;3.27;1.33;;;;;;;0.37;86.83;100947.02;1782483;80;20928;-74
2021/12/20 06:45:07;;;;;;;3.93;1.20;;;;;;;0.36;86.79;100937.97;1782453;80;21467;-74
2021/12/20 06:47:36;;;;;;;3.33;1.17;;;;;;;0.35;86.81;100948.70;1782804;80;20993;-75
2021/12/20 06:50:04;;;;;;;7.03;1.20;;;;;;;0.38;86.98;100956.91;1782438;80;21461;-75
2021/12/20 06:52:31;;;;;;;3.90;1.10;;;;;;;0.40;86.97;100948.35;1782438;80;21466;-73
2021/12/20 06:54:58;;;;;;;4.23;1.67;;;;;;;0.41;87.02;100956.52;1782375;80;21044;-74
2021/12/20 06:57:25;;;;;;;6.43;2.37;;;;;;;0.43;86.94;100958.70;1782723;80;20988;-74
2021/12/20 06:59:52;;;;;;;3.53;1.40;;;;;;;0.43;86.94;100959.99;1782509;80;21000;-76
2021/12/20 07:02:19;;;;;;;4.57;1.40;;;;;;;0.47;86.94;100963.90;1782736;80;20981;-75
2021/12/20 07:04:46;;;;;;;3.60;1.57;;;;;;;0.47;86.91;100953.16;1782434;80;22010;-74
2021/12/20 07:07:13;;;;;;;3.43;1.00;;;;;;;0.46;86.83;100952.72;1767874;80;21111;-76
2021/12/20 07:09:39;;;;;;;4.13;1.30;;;;;;;0.44;86.76;100954.02;1740954;81;21043;-76
2021/12/20 07:12:08;;;;;;;5.70;1.30;;;;;;;0.46;86.86;100972.50;1746249;80;21005;-76
2021/12/20 07:14:35;;;;;;;4.87;1.20;;;;;;;0.47;86.86;100974.22;1724736;83;21036;-75
2021/12/20 07:17:02;;;;;;;4.97;1.77;;;;;;;0.48;86.79;100979.84;1754448;81;21100;-77
2021/12/20 07:19:30;;;;;;;3.07;1.30;;;;;;;0.47;86.75;100983.24;1736617;81;21048;-74
2021/12/20 07:21:57;;;;;;;4.83;2.10;;;;;;;0.47;86.74;100987.97;1737611;82;21016;-75
2021/12/20 07:24:24;;;;;;;5.93;1.70;;;;;;;0.50;86.90;100997.47;1728990;81;21020;-74
2021/12/20 07:26:51;;;;;;;5.43;2.23;;;;;;;0.51;86.82;100998.79;1768122;80;21490;-75
2021/12/20 07:29:19;;;;;;;4.40;1.80;;;;;;;0.51;86.70;100999.22;1781656;80;21877;-73
2021/12/20 07:31:47;;;;;;;7.67;1.73;;;;;;;0.48;86.72;100996.17;1781416;80;21015;-76
2021/12/20 07:34:14;;;;;;;3.97;1.60;;;;;;;0.49;86.75;100995.75;1782455;80;21254;-75
2021/12/20 07:36:41;;;;;;;5.30;2.33;;;;;;;0.49;86.71;100999.19;1781326;80;21425;-75
2021/12/20 07:39:08;;;;;;;6.17;1.33;;;;;;;0.50;86.67;100994.89;1782506;80;21060;-75
2021/12/20 07:41:36;;;;;;;4.57;1.23;;;;;;;0.47;86.64;100997.00;1782714;80;21494;-75
2021/12/20 07:44:03;;;;;;;8.33;3.50;;;;;;;0.44;86.63;100991.41;1782372;80;21004;-76
2021/12/20 07:46:30;;;;;;;7.60;3.23;;;;;;;0.44;86.54;100991.80;1782768;80;21028;-75
2021/12/20 07:48:58;;;;;;;9.93;2.33;;;;;;;0.46;86.65;100993.13;1782588;80;21253;-75
2021/12/20 07:51:25;;;;;;;5.13;2.30;;;;;;;0.47;86.69;100995.70;1782406;80;20985;-75
2021/12/20 07:53:52;;;;;;;7.00;2.23;;;;;;;0.50;86.70;100996.17;1782722;80;21115;-75
2021/12/20 07:56:19;;;;;;;6.87;2.20;;;;;;;0.51;86.69;100991.48;1782394;80;20965;-75
2021/12/20 07:58:46;;;;;;;4.87;1.30;;;;;;;0.54;86.80;100994.95;1782817;80;21463;-76
2021/12/20 08:01:13;;;;;;;6.03;1.63;;;;;;;0.55;86.67;100997.97;1782363;80;21016;-75
2021/12/20 08:03:41;;;;;;;5.77;1.57;;;;;;;0.53;86.54;100991.95;1782737;80;21063;-75
2021/12/20 08:06:08;;;;;;;5.23;2.10;;;;;;;0.54;86.56;100996.67;1782365;80;21960;-75
2021/12/20 08:08:35;;;;;;;4.73;1.43;;;;;;;0.55;86.63;100997.11;1782614;80;21016;-75
2021/12/20 08:11:03;;;;;;;5.07;1.50;;;;;;;0.58;86.65;100994.17;1782617;80;21004;-75
2021/12/20 08:13:32;;;;;;;5.40;1.97;;;;;;;0.59;86.60;100996.32;1782706;80;21020;-75
2021/12/20 08:15:59;;;;;;;7.03;1.60;;;;;;;0.57;86.48;101009.61;1782474;80;21040;-75
2021/12/20 08:18:26;;;;;;;5.93;1.73;;;;;;;0.60;86.59;101010.94;1782634;80;21105;-75
2021/12/20 08:20:53;;;;;;;9.73;1.97;;;;;;;0.62;86.60;101017.00;1782355;80;20981;-76
2021/12/20 08:23:20;;;;;;;3.80;1.53;;;;;;;0.63;86.56;101014.42;1782539;80;21449;-74
2021/12/20 08:25:47;;;;;;;5.83;1.70;;;;;;;0.66;86.60;101022.63;1782599;80;21008;-75
2021/12/20 08:28:14;;;;;;;5.50;1.40;;;;;;;0.71;86.57;101022.70;1782704;80;21012;-76
2021/12/20 08:30:41;;;;;;;4.70;1.70;;;;;;;0.70;86.49;101019.26;1782491;80;21127;-75
2021/12/20 08:33:09;;;;;;;6.67;2.13;;;;;;;0.72;86.50;101025.70;1782616;80;21512;-75
2021/12/20 08:35:36;;;;;;;6.90;1.93;;;;;;;0.75;86.52;101024.06;1782550;80;20969;-75
2021/12/20 08:38:03;;;;;;;7.77;2.13;;;;;;;0.78;86.47;101033.55;1782542;80;21017;-75
2021/12/20 08:40:30;;;;;;;9.00;3.37;;;;;;;0.81;86.55;101033.59;1782689;80;21151;-75
2021/12/20 08:42:57;;;;;;;6.10;1.63;;;;;;;0.79;86.32;101032.27;1782643;80;21076;-75
2021/12/20 08:45:26;;;;;;;5.63;1.57;;;;;;;0.76;86.25;101037.82;1782420;80;20997;-75
2021/12/20 08:47:53;;;;;;;7.20;2.00;;;;;;;0.75;86.39;101035.67;1782863;80;21029;-75
2021/12/20 08:50:23;;;;;;;5.77;2.40;;;;;;;0.78;86.44;101030.55;1782751;80;20997;-75
2021/12/20 08:52:51;;;;;;;7.03;1.62;;;;;;;0.80;86.37;101035.70;1782754;80;21027;-75
2021/12/20 08:55:18;;;;;;;5.90;1.90;;;;;;;0.82;86.32;101048.22;1782998;80;21781;-75
2021/12/20 08:57:46;;;;;;;10.17;3.37;;;;;;;0.82;86.26;101045.63;1782564;80;20965;-76
2021/12/20 09:00:18;;;;;;;8.13;2.30;;;;;;;0.83;86.27;101050.83;1782808;80;21012;-75
2021/12/20 09:02:45;;;;;;;3.73;2.10;;;;;;;0.88;86.33;101050.87;1780345;80;20989;-75
2021/12/20 09:05:12;;;;;;;19.07;6.10;;;;;;;0.92;86.29;101048.79;1782909;80;21075;-75
2021/12/20 09:07:41;;;;;;;6.20;1.90;;;;;;;0.95;86.40;101047.97;1782752;80;21797;-75
2021/12/20 09:10:12;;;;;;;7.60;2.63;;;;;;;0.98;86.38;101050.15;1782450;80;21070;-75
2021/12/20 09:12:40;;;;;;;;;;;;;;;1.03;86.45;101052.38;1785513;80;21430;-75
2021/12/20 09:15:09;;;;;;;5.83;1.87;;;;;;;1.09;86.44;101067.93;1782858;80;20359;-75
2021/12/20 09:17:36;;;;;;;5.87;2.23;;;;;;;1.11;86.35;101060.22;1782473;80;21007;-75
2021/12/20 09:20:06;;;;;;;11.97;3.50;;;;;;;1.14;86.24;101069.69;1782840;80;21216;-75
2021/12/20 09:22:39;;;;;;;9.33;2.63;;;;;;;1.18;86.25;101065.88;1782397;80;21008;-76
2021/12/20 09:25:03;;;;;;;4.93;2.00;;;;;;;1.22;86.29;101068.06;1781953;80;21004;-76
2021/12/20 09:27:30;;;;;;;9.77;3.10;;;;;;;1.23;86.20;101077.56;1782851;80;20999;-75
2021/12/20 09:29:57;;;;;;;4.20;1.57;;;;;;;1.21;86.09;101079.25;1782673;80;20985;-75
2021/12/20 09:32:25;;;;;;;12.10;6.27;;;;;;;1.24;86.03;101079.28;1782751;80;21152;-75
2021/12/20 09:34:52;;;;;;;7.70;2.77;;;;;;;1.26;86.05;101079.75;1782569;80;21471;-75
2021/12/20 09:37:19;;;;;;;3.77;1.93;;;;;;;1.33;86.11;101071.23;1782694;80;20985;-76
2021/12/20 09:39:50;;;;;;;6.57;2.10;;;;;;;1.37;85.97;101074.71;1782629;80;21522;-75
2021/12/20 09:42:15;;;;;;;9.53;2.20;;;;;;;1.40;85.90;101077.33;1782400;80;20965;-75
2021/12/20 09:44:44;;;;;;;3.97;1.60;;;;;;;1.41;85.77;101080.77;1782540;80;21075;-76
2021/12/20 09:47:12;;;;;;;13.93;4.43;;;;;;;1.39;85.68;101075.61;1782745;80;21486;-75
2021/12/20 09:49:39;;;;;;;8.67;2.97;;;;;;;1.41;85.87;101072.59;1782935;80;21498;-75
2021/12/20 09:52:07;;;;;;;8.40;2.97;;;;;;;1.41;85.71;101073.87;1782480;80;21016;-76
2021/12/20 09:54:34;;;;;;;6.33;2.00;;;;;;;1.41;85.57;101085.51;1782585;80;21023;-75
2021/12/20 09:57:08;;;;;;;4.10;1.80;;;;;;;1.40;85.56;101083.78;1782554;80;21121;-75
2021/12/20 09:59:38;;;;;;;5.57;2.63;;;;;;;1.38;85.41;101083.32;1782182;80;21004;-75
2021/12/20 10:02:08;;;;;;;3.33;1.50;;;;;;;1.38;85.43;101089.34;1782465;80;21020;-76
2021/12/20 10:04:35;;;;;;;;;;;;;;;1.44;85.62;101085.57;1785396;80;20977;-75
2021/12/20 10:07:04;;;;;;;8.63;3.47;;;;;;;1.55;85.76;101082.67;1782635;80;20483;-76
2021/12/20 10:09:33;;;;;;;9.70;4.30;;;;;;;1.68;85.88;101082.36;1782671;80;21090;-75
2021/12/20 10:12:26;;;;;;;7.80;3.17;;;;;;;1.77;85.79;101090.23;1782630;80;21255;-75
2021/12/20 10:15:00;;;;;;;7.63;2.27;;;;;;;1.81;85.73;101088.96;1782532;80;20996;-75
2021/12/20 10:17:54;;;;;;;5.43;2.53;;;;;;;1.83;85.72;101095.88;1781191;80;21047;-75
2021/12/20 10:20:26;;;;;;;6.30;1.90;;;;;;;1.84;85.64;101093.73;1782790;80;21367;-75
2021/12/20 10:23:11;;;;;;;5.87;1.80;;;;;;;1.79;85.31;101097.98;1781609;80;21150;-75
2021/12/20 10:25:42;;;;;;;8.53;1.97;;;;;;;1.77;85.33;101093.21;1760302;80;21023;-75
2021/12/20 10:28:12;;;;;;;;;;;;;;;1.76;85.30;101091.48;1785498;80;21048;-75
2021/12/20 10:30:46;;;;;;;4.75;2.05;;;;;;;1.77;85.18;101090.63;1778332;80;20140;-75
2021/12/20 10:33:17;;;;;;;5.97;2.37;;;;;;;1.74;85.12;101085.43;1782913;80;21462;-75
2021/12/20 10:35:53;;;;;;;4.47;1.90;;;;;;;1.75;85.16;101082.02;1782643;80;21780;-74
2021/12/20 10:38:38;;;;;;;7.00;2.30;;;;;;;1.72;85.18;101080.27;1782701;80;21004;-75
2021/12/20 10:41:14;;;;;;;6.23;1.83;;;;;;;1.74;85.18;101082.41;1782513;80;21016;-75
2021/12/20 10:43:50;;;;;;;4.80;2.07;;;;;;;1.75;85.18;101089.77;1782902;80;20977;-75
2021/12/20 10:46:35;;;;;;;5.80;2.20;;;;;;;1.78;85.44;101091.09;1782480;80;21534;-75
2021/12/20 10:49:08;;;;;;;6.57;1.90;;;;;;;1.86;85.58;101092.03;1782640;80;22066;-75
2021/12/20 10:51:48;;;;;;;7.63;2.13;;;;;;;1.91;85.59;101092.95;1782745;80;21451;-75
2021/12/20 10:54:18;;;;;;;;;;;;;;;1.93;85.33;101092.95;1785442;80;21004;-75
2021/12/20 10:57:05;;;;;;;4.17;1.70;;;;;;;1.97;85.26;101093.43;1782738;80;20128;-75
2021/12/20 10:59:37;;;;;;;5.10;1.67;;;;;;;1.99;85.26;101086.09;1782746;80;21028;-75
2021/12/20 11:04:50;;;;;;;7.20;2.00;;;;;;;2.15;85.31;101083.23;1782665;80;20918;-75
2021/12/20 11:09:45;;;;;;;5.43;2.10;;;;;;;2.26;85.02;101090.22;1782706;80;21492;-76
2021/12/20 11:12:17;;;;;;;6.87;2.20;;;;;;;2.22;84.87;101082.44;1782516;80;21465;-75
2021/12/20 11:14:48;;;;;;;6.87;2.50;;;;;;;2.26;85.11;101088.48;1782344;80;21107;-75
2021/12/20 11:17:19;;;;;;;4.87;1.60;;;;;;;2.27;84.91;101090.21;1782416;80;20985;-76
2021/12/20 11:19:51;;;;;;;6.27;2.30;;;;;;;2.33;84.95;101094.16;1782722;80;21004;-76
2021/12/20 11:22:24;;;;;;;9.07;4.20;;;;;;;2.35;84.73;101088.55;1783241;80;21453;-76
2021/12/20 11:25:03;;;;;;;8.27;3.40;;;;;;;2.33;84.62;101094.16;1785679;80;21019;-76
2021/12/20 11:27:42;;;;;;;8.23;2.00;;;;;;;2.33;84.62;101091.98;1785559;80;21312;-76
2021/12/20 11:30:16;;;;;;;7.17;3.23;;;;;;;2.36;84.57;101097.20;1785438;80;21023;-77
2021/12/20 11:32:46;;;;;;;10.30;3.80;;;;;;;2.40;84.63;101088.59;1784195;80;20972;-76
2021/12/20 11:35:15;;;;;;;3.98;1.85;;;;;;;2.45;84.71;101086.91;1785867;80;21017;-76
2021/12/20 11:37:44;;;;;;;5.07;1.53;;;;;;;2.50;84.76;101096.02;1785917;80;21497;-77
2021/12/20 11:40:14;;;;;;;5.70;2.00;;;;;;;2.50;84.62;101083.08;1785553;80;21929;-77
2021/12/20 11:42:41;;;;;;;7.83;2.00;;;;;;;2.51;84.59;101086.95;1785513;80;20996;-77
2021/12/20 11:45:12;;;;;;;4.47;1.63;;;;;;;2.48;84.44;101077.02;1785416;80;21000;-77
2021/12/20 11:47:59;;;;;;;5.85;1.80;;;;;;;2.43;84.26;101080.42;1785343;80;21035;-74
2021/12/20 11:50:39;;;;;;;6.17;1.50;;;;;;;2.44;84.20;101087.34;1785218;80;21067;-76
2021/12/20 11:53:09;;;;;;;2.67;1.00;;;;;;;2.40;83.97;101082.99;1785774;80;21101;-76
2021/12/20 11:55:46;;;;;;;7.60;1.47;;;;;;;2.38;84.00;101083.43;1785080;80;21004;-76